createdAt,value
2023-04-29T00:01:49.620Z,101282.03
2023-04-29T00:12:11.207Z,101274.44
2023-04-29T00:22:32.588Z,101299.56
2023-04-29T00:32:54.431Z,101304.75
2023-04-29T00:43:16.057Z,101317.97
2023-04-29T00:53:38.289Z,101334.50
2023-04-29T01:04:02.085Z,101342.41
2023-04-29T01:14:24.134Z,101350.19
2023-04-29T01:24:45.488Z,101358.97
2023-04-29T01:35:06.939Z,101376.41
2023-04-29T01:45:29.088Z,101389.50
2023-04-29T01:55:50.478Z,101411.94
2023-04-29T02:06:11.899Z,101412.03
2023-04-29T02:16:33.267Z,101425.94
2023-04-29T02:26:54.702Z,101436.34
2023-04-29T02:37:16.142Z,101449.31
2023-04-29T02:47:37.643Z,101456.22
2023-04-29T02:57:59.056Z,101477.09
2023-04-29T03:08:20.439Z,101490.03
2023-04-29T03:18:41.820Z,101509.06
2023-04-29T03:29:03.578Z,101515.09
2023-04-29T03:39:24.956Z,101516.75
2023-04-29T03:49:46.464Z,101524.50
2023-04-29T04:00:08.139Z,101549.53
2023-04-29T04:10:30.038Z,101560.72
2023-04-29T04:20:51.526Z,101577.97
2023-04-29T04:31:14.802Z,101605.59
2023-04-29T04:41:36.263Z,101618.53
2023-04-29T04:51:57.633Z,101633.28
2023-04-29T05:02:19.196Z,101641.91
2023-04-29T05:12:40.761Z,101649.66
2023-04-29T05:23:02.504Z,101662.63
2023-04-29T05:33:23.893Z,101684.13
2023-04-29T05:43:45.334Z,101702.31
2023-04-29T05:54:06.905Z,101710.94
2023-04-29T06:04:28.809Z,101721.28
2023-04-29T06:14:50.432Z,101745.38
2023-04-29T06:25:11.840Z,101750.50
2023-04-29T06:35:33.171Z,101756.41
2023-04-29T06:45:54.594Z,101782.22
2023-04-29T06:56:17.191Z,101790.72
2023-04-29T07:06:38.830Z,101812.09
2023-04-29T07:17:00.292Z,101817.94
2023-04-29T07:27:21.813Z,101839.16
2023-04-29T07:37:44.093Z,101841.53
2023-04-29T07:48:06.631Z,101859.44
2023-04-29T07:58:28.230Z,101870.34
2023-04-29T08:08:49.826Z,101886.56
2023-04-29T08:19:11.408Z,101895.22
2023-04-29T08:29:33.063Z,101901.03
2023-04-29T08:39:54.430Z,101922.22
2023-04-29T08:50:15.966Z,101930.59
2023-04-29T09:00:37.868Z,101931.09
2023-04-29T09:10:59.384Z,101945.50
2023-04-29T09:21:25.044Z,101948.31
2023-04-29T09:31:46.811Z,101951.50
2023-04-29T09:42:09.583Z,101971.19
2023-04-29T09:52:39.791Z,101968.91
2023-04-29T10:03:01.619Z,101971.94
2023-04-29T10:13:24.847Z,101969.50
2023-04-29T10:23:46.269Z,101976.94
2023-04-29T10:34:07.992Z,101978.16
2023-04-29T10:44:29.344Z,101968.69
2023-04-29T10:55:02.040Z,101974.50
2023-04-29T11:05:41.657Z,101979.66
2023-04-29T11:16:07.027Z,101979.69
2023-04-29T11:26:28.568Z,101981.19
2023-04-29T11:36:50.105Z,101984.44
2023-04-29T11:47:11.476Z,101986.97
2023-04-29T11:57:32.869Z,101980.47
2023-04-29T12:07:57.324Z,101995.41
2023-04-29T12:18:19.536Z,102007.28
2023-04-29T12:28:41.991Z,101990.56
2023-04-29T12:39:07.094Z,102021.63
2023-04-29T12:49:28.511Z,102021.63
2023-04-29T12:59:49.878Z,102027.97
2023-04-29T13:10:12.920Z,102023.69
2023-04-29T13:20:41.094Z,102031.13
2023-04-29T13:31:03.809Z,102037.47
2023-04-29T13:41:26.504Z,102042.22
2023-04-29T13:52:26.002Z,102050.84
2023-04-29T14:02:29.436Z,102066.78
2023-04-29T14:12:51.093Z,102073.00
2023-04-29T14:23:12.469Z,102080.41
2023-04-29T14:33:33.838Z,102094.31
2023-04-29T14:43:55.371Z,102106.44
2023-04-29T14:54:16.786Z,102118.66
2023-04-29T15:04:39.148Z,102133.19
2023-04-29T15:15:00.641Z,102140.88
2023-04-29T15:25:24.268Z,102144.75
2023-04-29T15:35:46.969Z,102159.06
2023-04-29T15:46:08.609Z,102178.88
2023-04-29T15:56:30.523Z,102179.25
2023-04-29T16:06:52.694Z,102198.66
2023-04-29T16:17:14.104Z,102204.69
2023-04-29T16:27:35.674Z,102215.97
2023-04-29T16:37:57.069Z,102206.31
2023-04-29T16:48:18.597Z,102215.94
2023-04-29T16:58:39.954Z,102220.75
2023-04-29T17:09:02.383Z,102223.91
2023-04-29T17:19:23.828Z,102234.78
2023-04-29T17:29:52.888Z,102243.63
2023-04-29T17:40:14.507Z,102254.16
2023-04-29T17:50:37.545Z,102259.53
2023-04-29T18:00:59.182Z,102276.06
2023-04-29T18:11:21.094Z,102284.22
2023-04-29T18:21:42.453Z,102284.44
2023-04-29T18:32:05.701Z,102289.56
2023-04-29T18:42:29.175Z,102288.22
2023-04-29T18:52:50.629Z,102300.75
2023-04-29T19:03:12.508Z,102323.56
2023-04-29T19:13:33.963Z,102348.81
2023-04-29T19:23:55.512Z,102364.56
2023-04-29T19:34:16.926Z,102376.84
2023-04-29T19:44:38.329Z,102381.34
2023-04-29T19:54:59.743Z,102379.72
2023-04-29T20:05:21.267Z,102378.97
2023-04-29T20:15:42.798Z,102389.41
2023-04-29T20:26:04.260Z,102390.38
2023-04-29T20:36:28.407Z,102397.31
2023-04-29T20:46:50.493Z,102403.38
2023-04-29T20:57:11.972Z,102410.28
2023-04-29T21:07:33.465Z,102418.09
2023-04-29T21:17:55.608Z,102431.91
2023-04-29T21:28:17.157Z,102434.50
2023-04-29T21:38:38.639Z,102435.34
2023-04-29T21:49:00.822Z,102426.78
2023-04-29T21:59:22.184Z,102443.13
2023-04-29T22:09:47.110Z,102448.31
2023-04-29T22:20:09.933Z,102457.78
2023-04-29T22:30:31.468Z,102459.50
2023-04-29T22:40:52.922Z,102465.53
2023-04-29T22:51:14.288Z,102468.97
2023-04-29T23:01:36.634Z,102465.50
2023-04-29T23:11:59.262Z,102470.66
2023-04-29T23:22:20.614Z,102473.19
2023-04-29T23:32:42.051Z,102482.66
2023-04-29T23:43:03.738Z,102492.91
2023-04-29T23:53:25.167Z,102495.44
